Time;durP1;ratioP1;P1;durP2;ratioP2;P2;SDS_P1;SDS_P2;PMS_P1;PMS_P2;Temp;Humidity;BMP_temperature;BMP_pressure;BME280_temperature;BME280_humidity;BME280_pressure;Samples;Min_cycle;Max_cycle;Signal;HPM_P1;HPM_P2
2023/04/15 00:00:58;;;;;;;2.50;2.30;;;;;;;6.96;66.25;97968.44;5073775;28;39006;-80
2023/04/15 00:03:28;;;;;;;2.70;2.30;;;;;;;6.93;66.22;97963.34;5091820;28;41634;-80
2023/04/15 00:05:56;;;;;;;2.27;2.03;;;;;;;6.68;66.18;97932.44;5073759;28;41951;-82
2023/04/15 00:08:24;;;;;;;2.83;2.57;;;;;;;6.90;66.39;97962.72;5091487;28;42150;-84
2023/04/15 00:10:51;;;;;;;3.60;2.43;;;;;;;6.87;66.12;97952.38;5077984;28;38865;-79
2023/04/15 00:13:19;;;;;;;2.60;2.37;;;;;;;6.85;66.15;97955.94;5077371;28;40794;-81
2023/04/15 00:15:47;;;;;;;3.10;2.30;;;;;;;6.82;66.16;97956.13;5077042;28;41809;-81
2023/04/15 00:18:14;;;;;;;4.43;2.50;;;;;;;6.73;66.71;97938.28;5094211;28;42332;-79
2023/04/15 00:20:43;;;;;;;3.33;2.70;;;;;;;6.81;66.92;97949.16;5077462;28;38865;-82
2023/04/15 00:23:11;;;;;;;4.73;2.60;;;;;;;6.81;66.89;97948.31;5077417;28;40283;-81
2023/04/15 00:25:39;;;;;;;4.33;2.80;;;;;;;6.81;66.89;97954.41;5095384;28;42822;-79
2023/04/15 00:28:07;;;;;;;2.50;2.30;;;;;;;6.83;67.10;97947.28;5076895;28;42603;-78
2023/04/15 00:30:34;;;;;;;5.13;3.17;;;;;;;6.86;66.88;97941.00;5077112;28;39943;-85
2023/04/15 00:33:02;;;;;;;3.20;2.90;;;;;;;6.88;66.83;97939.13;5094962;28;42645;-79
2023/04/15 00:35:31;;;;;;;2.60;2.30;;;;;;;6.91;66.86;97945.97;5094044;28;42706;-79
2023/04/15 00:38:00;;;;;;;4.13;2.63;;;;;;;6.91;66.80;97938.09;5093975;28;41186;-80
2023/04/15 00:40:27;;;;;;;3.33;3.00;;;;;;;6.85;66.90;97924.34;5094066;28;39105;-77
2023/04/15 00:42:55;;;;;;;3.30;2.90;;;;;;;6.82;66.96;97913.16;5076445;28;40956;-83
2023/04/15 00:45:23;;;;;;;2.13;1.90;;;;;;;6.98;67.13;97934.97;5093253;28;41636;-81
2023/04/15 00:47:51;;;;;;;3.40;2.67;;;;;;;7.03;66.72;97937.31;5094015;28;42369;-84
2023/04/15 00:50:18;;;;;;;2.47;2.27;;;;;;;7.06;66.85;97939.75;5077174;28;40419;-78
2023/04/15 00:52:46;;;;;;;2.80;2.30;;;;;;;7.09;66.96;97943.03;5076412;28;41616;-80
2023/04/15 00:55:15;;;;;;;3.87;2.67;;;;;;;7.10;67.81;97928.94;5093846;28;42856;-80
2023/04/15 00:57:43;;;;;;;4.33;2.87;;;;;;;7.16;67.54;97939.09;5093624;28;42214;-79
2023/04/15 01:00:12;;;;;;;3.23;2.80;;;;;;;7.07;67.35;97923.00;5093451;28;39985;-78
2023/04/15 01:02:40;;;;;;;5.13;3.53;;;;;;;7.22;67.09;97929.94;5076583;28;41918;-81
2023/04/15 01:05:08;;;;;;;4.40;2.90;;;;;;;7.25;67.06;97937.66;5094966;28;42737;-79
2023/04/15 01:07:35;;;;;;;3.00;2.70;;;;;;;7.27;67.02;97930.50;5093389;28;42378;-84
2023/04/15 01:10:04;;;;;;;2.67;2.30;;;;;;;7.29;66.96;97930.41;5077077;28;38897;-82
2023/04/15 01:12:34;;;;;;;2.43;2.23;;;;;;;7.30;67.10;97932.91;5094576;28;41997;-79
2023/04/15 01:15:02;;;;;;;2.47;2.27;;;;;;;7.33;66.92;97930.09;5076574;28;42496;-81
2023/04/15 01:17:30;;;;;;;2.33;2.13;;;;;;;7.34;66.97;97929.16;5076156;28;40912;-82
2023/04/15 01:19:57;;;;;;;2.90;2.40;;;;;;;7.35;66.98;97927.38;5092293;28;41162;-80
2023/04/15 01:22:26;;;;;;;3.33;3.03;;;;;;;7.33;67.42;97924.81;5094067;28;41371;-83
2023/04/15 01:25:00;;;;;;;3.43;2.63;;;;;;;7.36;67.64;97924.63;5076400;28;42069;-78
2023/04/15 01:27:30;;;;;;;4.17;3.33;;;;;;;7.37;71.27;97912.31;5076437;28;42311;-81
2023/04/15 01:29:57;;;;;;;3.87;3.57;;;;;;;7.22;71.05;97896.56;5093319;28;40821;-80
2023/04/15 01:32:25;;;;;;;3.33;3.03;;;;;;;7.38;70.55;97914.84;5075969;28;41774;-82
2023/04/15 01:35:12;;;;;;;3.40;3.10;;;;;;;7.36;69.81;97905.34;5091399;28;43409;-85
2023/04/15 01:37:50;;;;;;;3.00;2.70;;;;;;;7.38;69.83;97917.50;5093631;28;42958;-83
2023/04/15 01:40:17;;;;;;;2.83;2.60;;;;;;;7.41;69.37;97916.44;5092988;28;40623;-83
2023/04/15 01:42:48;;;;;;;3.00;2.70;;;;;;;7.42;69.66;97913.69;5092372;28;42767;-81
2023/04/15 01:45:18;;;;;;;3.97;2.83;;;;;;;7.45;69.31;97921.41;5092846;28;44024;-81
2023/04/15 01:47:48;;;;;;;3.80;3.40;;;;;;;7.47;69.15;97916.03;5092533;28;43291;-82
2023/04/15 01:50:17;;;;;;;4.53;3.03;;;;;;;7.47;69.10;97918.66;5093036;28;42806;-81
2023/04/15 01:52:47;;;;;;;3.03;2.73;;;;;;;7.47;69.14;97916.88;5092046;28;42074;-79
2023/04/15 01:55:16;;;;;;;3.30;3.00;;;;;;;7.47;69.34;97914.25;5092323;28;43919;-82
2023/04/15 01:57:45;;;;;;;3.90;3.23;;;;;;;7.44;68.99;97910.97;5092268;28;43690;-79
2023/04/15 02:00:16;;;;;;;3.40;2.83;;;;;;;7.46;69.17;97920.47;5092247;28;40355;-78
2023/04/15 02:02:45;;;;;;;3.07;2.77;;;;;;;7.47;69.42;97918.66;5092064;28;42146;-83
2023/04/15 02:05:14;;;;;;;3.73;3.03;;;;;;;7.45;69.08;97918.75;5092437;28;43918;-79
2023/04/15 02:07:49;;;;;;;3.90;3.17;;;;;;;7.44;69.11;97914.44;5093332;28;42462;-81
2023/04/15 02:10:18;;;;;;;3.90;3.20;;;;;;;7.45;68.83;97912.66;5092520;28;41120;-79
2023/04/15 02:12:47;;;;;;;5.57;3.07;;;;;;;7.36;68.90;97903.56;5093307;28;42841;-82
2023/04/15 02:15:17;;;;;;;3.70;3.27;;;;;;;7.38;68.92;97901.69;5091549;28;42922;-81
2023/04/15 02:17:49;;;;;;;3.40;2.90;;;;;;;7.41;68.91;97914.66;5091984;28;42146;-81
2023/04/15 02:20:19;;;;;;;3.60;3.30;;;;;;;7.42;69.07;97913.69;5093503;28;40285;-79
2023/04/15 02:22:49;;;;;;;3.67;3.03;;;;;;;7.41;69.25;97906.75;5091465;28;41830;-82
2023/04/15 02:25:19;;;;;;;3.30;2.97;;;;;;;7.42;69.50;97908.41;5091746;28;44040;-79
2023/04/15 02:27:48;;;;;;;3.13;2.83;;;;;;;7.42;69.15;97908.41;5091839;28;42091;-81
2023/04/15 02:30:22;;;;;;;3.23;2.90;;;;;;;7.41;69.37;97912.03;5091864;28;40227;-81
2023/04/15 02:32:51;;;;;;;3.20;2.90;;;;;;;7.37;69.78;97899.16;5091624;28;41884;-78
2023/04/15 02:35:20;;;;;;;4.50;3.33;;;;;;;7.35;69.98;97896.59;5091853;28;42966;-79
2023/04/15 02:37:49;;;;;;;5.03;3.40;;;;;;;7.37;70.07;97900.00;5092036;28;43645;-80
2023/04/15 02:40:19;;;;;;;6.47;3.63;;;;;;;7.36;70.42;97889.56;5092021;28;40601;-82
2023/04/15 02:42:48;;;;;;;4.10;3.70;;;;;;;7.34;70.13;97887.00;5091780;28;41768;-80
2023/04/15 02:45:23;;;;;;;3.67;3.37;;;;;;;7.36;70.89;97893.03;5091736;28;43046;-79
2023/04/15 02:47:51;;;;;;;5.30;4.27;;;;;;;7.02;70.97;97840.88;5091513;28;43362;-83
2023/04/15 02:50:22;;;;;;;5.93;4.47;;;;;;;7.36;71.77;97889.56;5091806;28;40090;-83
2023/04/15 02:52:51;;;;;;;5.80;3.70;;;;;;;7.36;71.62;97887.75;5091457;28;41868;-79
2023/04/15 02:55:20;;;;;;;4.43;4.03;;;;;;;7.37;71.76;97889.47;5091458;28;42984;-81
2023/04/15 02:57:49;;;;;;;3.57;3.27;;;;;;;7.38;71.80;97885.88;5090879;28;42573;-82
2023/04/15 03:00:19;;;;;;;3.43;3.13;;;;;;;7.40;71.94;97891.06;5091227;28;41195;-80
2023/04/15 03:02:55;;;;;;;5.40;3.87;;;;;;;7.39;71.69;97887.56;5091033;28;41405;-80
2023/04/15 03:05:24;;;;;;;4.17;3.70;;;;;;;7.40;71.80;97888.41;5091369;28;43013;-81
2023/04/15 03:07:53;;;;;;;5.13;3.70;;;;;;;7.40;71.75;97889.25;5092469;28;42533;-82
2023/04/15 03:10:23;;;;;;;4.67;3.80;;;;;;;7.32;72.33;97874.88;5091327;28;40982;-78
2023/04/15 03:12:52;;;;;;;6.20;4.17;;;;;;;7.41;72.44;97890.97;5091495;28;42804;-81
2023/04/15 03:15:23;;;;;;;5.27;4.00;;;;;;;7.26;73.60;97854.22;5090345;28;43314;-80
2023/04/15 03:17:55;;;;;;;5.67;3.87;;;;;;;7.38;73.12;97875.34;5091085;28;45374;-82
2023/04/15 03:20:24;;;;;;;5.47;3.50;;;;;;;7.36;72.77;97876.38;5091030;28;40491;-82
2023/04/15 03:22:53;;;;;;;4.13;3.63;;;;;;;7.44;72.70;97889.88;5090520;28;42847;-85
2023/04/15 03:25:25;;;;;;;4.17;3.80;;;;;;;7.44;72.99;97880.19;5091027;28;44649;-80
2023/04/15 03:27:54;;;;;;;7.23;4.30;;;;;;;7.43;72.90;97881.13;5090776;28;42493;-81
2023/04/15 03:30:23;;;;;;;4.37;3.97;;;;;;;7.46;73.41;97878.31;5090966;28;40933;-81
2023/04/15 03:32:53;;;;;;;5.47;3.87;;;;;;;7.47;73.02;97880.00;5090769;28;41954;-80
2023/04/15 03:35:23;;;;;;;4.57;4.07;;;;;;;7.48;73.29;97879.06;5091259;28;42865;-80
2023/04/15 03:37:52;;;;;;;4.27;3.57;;;;;;;7.49;73.13;97882.53;5090946;28;42800;-79
2023/04/15 03:40:22;;;;;;;4.00;3.70;;;;;;;7.48;73.11;97886.13;5091260;28;40297;-84
2023/04/15 03:42:50;;;;;;;5.63;3.80;;;;;;;7.35;73.00;97865.00;5090327;28;42812;-80
2023/04/15 03:45:19;;;;;;;4.07;3.50;;;;;;;7.46;73.19;97885.38;5091871;28;43062;-78
2023/04/15 03:47:49;;;;;;;4.00;3.03;;;;;;;7.46;73.16;97891.47;5090766;28;42547;-79
2023/04/15 03:50:17;;;;;;;4.03;3.23;;;;;;;7.29;73.24;97864.56;5091006;28;41265;-80
2023/04/15 03:52:47;;;;;;;4.90;3.37;;;;;;;7.40;73.27;97891.91;5090725;28;42086;-84
2023/04/15 03:55:17;;;;;;;3.57;3.23;;;;;;;7.39;73.42;97892.84;5091020;28;43866;-79
2023/04/15 03:57:46;;;;;;;3.47;2.83;;;;;;;7.36;73.21;97893.03;5091724;28;43374;-81
2023/04/15 04:00:15;;;;;;;5.50;3.40;;;;;;;7.33;72.93;97893.22;5090767;28;40261;-80
2023/04/15 04:02:44;;;;;;;4.77;3.53;;;;;;;7.29;73.47;97891.75;5090343;28;42177;-84
2023/04/15 04:05:13;;;;;;;4.17;3.77;;;;;;;7.27;74.21;97891.00;5090609;28;43003;-77
2023/04/15 04:07:42;;;;;;;4.80;3.27;;;;;;;7.26;73.73;97885.81;5091451;28;42574;-84
2023/04/15 04:10:13;;;;;;;3.20;2.90;;;;;;;7.10;74.01;97867.53;5090760;28;41076;-77
2023/04/15 04:12:42;;;;;;;3.60;3.30;;;;;;;7.23;73.79;97889.50;5091383;28;42150;-79
2023/04/15 04:15:12;;;;;;;3.37;3.07;;;;;;;7.25;73.83;97895.50;5091362;28;43957;-81
2023/04/15 04:17:41;;;;;;;4.07;3.60;;;;;;;7.26;74.04;97891.94;5091332;28;42528;-78
2023/04/15 04:20:11;;;;;;;4.17;3.30;;;;;;;7.27;74.28;97893.63;5091224;28;40216;-81
2023/04/15 04:22:40;;;;;;;3.67;3.37;;;;;;;7.29;74.27;97897.03;5090459;28;42797;-81
2023/04/15 04:25:10;;;;;;;4.07;3.60;;;;;;;7.18;74.08;97876.63;5091565;28;43060;-82
2023/04/15 04:27:41;;;;;;;7.13;3.60;;;;;;;7.33;74.11;97901.13;5090358;28;43324;-80
2023/04/15 04:30:10;;;;;;;3.80;3.47;;;;;;;7.35;74.04;97901.88;5090206;28;40192;-81
2023/04/15 04:32:39;;;;;;;4.47;3.17;;;;;;;7.38;74.47;97900.84;5090285;28;41803;-84
2023/04/15 04:35:10;;;;;;;5.93;3.50;;;;;;;7.33;74.31;97882.69;5090207;28;42993;-84
2023/04/15 04:37:39;;;;;;;3.97;3.57;;;;;;;7.42;74.17;97908.41;5090980;28;42598;-80
2023/04/15 04:40:09;;;;;;;4.10;3.37;;;;;;;7.37;74.05;97878.91;5090556;28;41240;-79
2023/04/15 04:42:40;;;;;;;4.20;3.27;;;;;;;7.50;74.11;97890.34;5090133;28;42984;-81
2023/04/15 04:45:09;;;;;;;5.50;3.30;;;;;;;7.55;73.63;97904.03;5089675;28;42805;-82
2023/04/15 04:47:39;;;;;;;4.37;3.97;;;;;;;7.59;74.36;97894.16;5090336;28;42606;-80
2023/04/15 04:50:09;;;;;;;4.17;3.70;;;;;;;7.61;74.09;97888.78;5089952;28;41104;-83
2023/04/15 04:52:38;;;;;;;5.17;3.93;;;;;;;7.57;73.93;97880.22;5089778;28;41998;-79
2023/04/15 04:55:08;;;;;;;4.60;3.30;;;;;;;7.63;74.04;97876.38;5091731;28;43084;-81
2023/04/15 04:57:38;;;;;;;5.23;3.97;;;;;;;7.63;74.37;97868.47;5093327;28;43383;-80
2023/04/15 05:00:11;;;;;;;4.30;3.90;;;;;;;7.77;74.22;97892.13;5094446;28;40177;-79
2023/04/15 05:02:42;;;;;;;4.43;3.67;;;;;;;7.83;73.81;97896.97;5094386;28;41756;-78
2023/04/15 05:05:12;;;;;;;4.67;3.47;;;;;;;7.84;73.67;97888.09;5093130;28;43898;-78
2023/04/15 05:07:41;;;;;;;5.43;3.60;;;;;;;7.93;73.37;97895.38;5093340;28;43448;-77
2023/04/15 05:10:10;;;;;;;5.37;3.97;;;;;;;7.99;73.53;97897.63;5093320;28;41048;-82
2023/04/15 05:12:39;;;;;;;4.40;3.70;;;;;;;8.06;73.34;97898.03;5094256;28;42010;-81
2023/04/15 05:15:11;;;;;;;5.33;4.17;;;;;;;8.13;73.04;97900.19;5092775;28;42970;-82
2023/04/15 05:17:40;;;;;;;5.47;4.17;;;;;;;8.21;72.78;97897.84;5094759;28;43255;-77
2023/04/15 05:20:10;;;;;;;4.70;3.40;;;;;;;8.29;72.69;97900.81;5092897;28;40519;-80
2023/04/15 05:22:39;;;;;;;4.20;3.80;;;;;;;8.31;72.38;97898.06;5092905;28;41755;-79
2023/04/15 05:25:09;;;;;;;3.47;3.13;;;;;;;8.45;72.21;97905.06;5095295;28;43873;-78
2023/04/15 05:27:38;;;;;;;3.60;3.30;;;;;;;8.55;72.44;97909.59;5097602;28;43883;-79
2023/04/15 05:30:11;;;;;;;5.07;3.60;;;;;;;8.58;71.93;97898.84;5098121;28;41427;-80
2023/04/15 05:32:39;;;;;;;4.47;3.47;;;;;;;8.77;71.23;97906.31;5098993;28;41802;-83
2023/04/15 05:35:09;;;;;;;4.17;3.50;;;;;;;8.87;71.09;97912.63;5097832;28;44492;-80
2023/04/15 05:37:38;;;;;;;4.60;3.33;;;;;;;8.99;70.79;97917.06;5094300;28;43572;-78
2023/04/15 05:40:09;;;;;;;3.77;3.37;;;;;;;8.98;70.91;97886.31;5093981;28;41054;-78
2023/04/15 05:42:38;;;;;;;4.20;3.37;;;;;;;9.21;70.43;97911.06;5092541;28;42733;-79
2023/04/15 05:45:08;;;;;;;2.93;2.73;;;;;;;8.96;69.93;97853.88;5092709;28;43920;-79
2023/04/15 05:47:39;;;;;;;4.23;3.13;;;;;;;9.45;69.69;97929.59;5094047;28;42553;-83
2023/04/15 05:50:08;;;;;;;3.80;3.43;;;;;;;9.58;69.58;97925.09;5093002;28;39883;-79
2023/04/15 05:52:37;;;;;;;5.33;3.60;;;;;;;9.69;69.29;97932.22;5093392;28;42100;-83
2023/04/15 05:55:07;;;;;;;3.10;2.80;;;;;;;9.77;69.17;97924.56;5092341;28;43898;-82
2023/04/15 05:57:36;;;;;;;3.07;2.87;;;;;;;9.91;68.78;97928.84;5092440;28;42555;-82
2023/04/15 06:00:06;;;;;;;3.40;3.10;;;;;;;9.98;68.07;97925.63;5093574;28;40109;-82
2023/04/15 06:02:40;;;;;;;3.00;2.70;;;;;;;10.04;68.08;97929.59;5094031;28;42038;-80
2023/04/15 06:05:10;;;;;;;4.00;3.13;;;;;;;10.17;68.07;97935.66;5093491;28;43894;-80
2023/04/15 06:07:39;;;;;;;4.00;3.60;;;;;;;10.22;67.83;97927.44;5091749;28;45106;-82
2023/04/15 06:10:09;;;;;;;3.87;3.50;;;;;;;10.37;67.38;97935.03;5092323;28;40347;-79
2023/04/15 06:12:38;;;;;;;4.53;3.00;;;;;;;10.37;67.41;97924.47;5092188;28;42870;-82
2023/04/15 06:15:10;;;;;;;6.97;3.47;;;;;;;10.55;67.02;97937.22;5092843;28;43774;-81
2023/04/15 06:17:40;;;;;;;5.20;3.73;;;;;;;10.63;66.86;97925.06;5092283;28;42480;-78
2023/04/15 06:20:11;;;;;;;5.60;4.10;;;;;;;10.72;66.23;97932.31;5093475;28;42017;-79
2023/04/15 06:22:40;;;;;;;4.00;3.60;;;;;;;10.80;66.13;97939.66;5092042;28;41965;-76
2023/04/15 06:25:09;;;;;;;4.13;3.43;;;;;;;10.91;65.64;97939.66;5091824;28;43036;-79
2023/04/15 06:27:38;;;;;;;3.27;2.97;;;;;;;11.04;65.47;97937.72;5091729;28;42619;-79
2023/04/15 06:30:08;;;;;;;3.63;3.23;;;;;;;11.20;65.27;97944.47;5093062;28;41027;-80
2023/04/15 06:32:37;;;;;;;3.03;2.63;;;;;;;11.33;64.83;97939.88;5091348;28;42846;-81
2023/04/15 06:35:09;;;;;;;4.60;3.20;;;;;;;11.51;64.38;97949.00;5093132;28;43831;-80
2023/04/15 06:37:38;;;;;;;3.53;3.13;;;;;;;11.69;63.64;97955.47;5091341;28;42303;-80
2023/04/15 06:40:10;;;;;;;3.17;2.87;;;;;;;11.90;63.25;97955.53;5093436;28;40410;-80
2023/04/15 06:42:39;;;;;;;4.87;2.90;;;;;;;12.11;62.48;97960.91;5091090;28;42839;-82
2023/04/15 06:45:09;;;;;;;3.70;3.37;;;;;;;12.30;62.47;97961.06;5092033;28;43062;-80
2023/04/15 06:47:38;;;;;;;3.80;3.50;;;;;;;12.45;61.46;97973.06;5092562;28;43326;-79
2023/04/15 06:50:10;;;;;;;3.63;2.90;;;;;;;12.62;61.30;97968.09;5091545;28;40247;-82
2023/04/15 06:52:39;;;;;;;2.87;2.53;;;;;;;12.77;61.27;97958.84;5091561;28;42149;-78
2023/04/15 06:55:09;;;;;;;3.60;2.90;;;;;;;12.86;60.91;97960.69;5091351;28;43926;-79
2023/04/15 06:57:38;;;;;;;3.47;3.27;;;;;;;13.01;60.60;97963.84;5092692;28;42648;-84
2023/04/15 07:00:10;;;;;;;3.53;3.23;;;;;;;13.08;60.51;97960.53;5091428;28;40048;-80
2023/04/15 07:02:39;;;;;;;4.57;2.63;;;;;;;13.24;60.43;97966.22;5093028;28;41801;-80
2023/04/15 07:05:10;;;;;;;4.73;3.37;;;;;;;13.42;60.45;97966.44;5092748;28;42964;-78
2023/04/15 07:07:38;;;;;;;3.20;3.00;;;;;;;13.58;59.51;97963.28;5092061;28;42485;-79
2023/04/15 07:10:10;;;;;;;3.83;3.47;;;;;;;13.75;58.49;97981.22;5092648;28;41651;-81
2023/04/15 07:12:40;;;;;;;3.13;2.83;;;;;;;13.88;58.17;97976.47;5091203;28;42053;-82
2023/04/15 07:15:09;;;;;;;4.23;3.10;;;;;;;14.02;58.16;97973.41;5091607;28;42999;-81
2023/04/15 07:17:38;;;;;;;3.67;3.37;;;;;;;14.11;56.82;97987.69;5090019;28;42620;-79
2023/04/15 07:20:11;;;;;;;3.87;3.23;;;;;;;14.14;56.76;97984.78;5090912;28;41041;-80
2023/04/15 07:22:41;;;;;;;3.60;3.10;;;;;;;14.21;55.64;97993.91;5091585;28;42784;-82
2023/04/15 07:25:10;;;;;;;4.13;3.10;;;;;;;14.38;56.07;97989.69;5091755;28;43991;-81
2023/04/15 07:27:39;;;;;;;3.70;3.40;;;;;;;14.52;55.82;97986.63;5092384;28;42623;-79
2023/04/15 07:30:09;;;;;;;3.60;3.30;;;;;;;14.79;55.48;97993.88;5091423;28;40232;-79
2023/04/15 07:32:38;;;;;;;3.87;3.37;;;;;;;14.94;54.91;97996.94;5092010;28;42150;-81
2023/04/15 07:35:10;;;;;;;3.73;3.37;;;;;;;15.02;53.83;98007.72;5091806;28;43690;-81
2023/04/15 07:37:40;;;;;;;6.00;4.30;;;;;;;15.08;52.79;98021.28;5092133;28;43663;-78
2023/04/15 07:40:10;;;;;;;3.97;3.60;;;;;;;15.18;53.18;98009.78;5091015;28;41166;-81
2023/04/15 07:42:39;;;;;;;4.40;4.00;;;;;;;15.28;52.48;98015.94;5092140;28;42768;-77
2023/04/15 07:45:09;;;;;;;6.13;3.70;;;;;;;15.35;51.58;98023.19;5090659;28;43018;-80
2023/04/15 07:47:39;;;;;;;4.30;3.90;;;;;;;15.40;51.01;98015.59;5090692;28;42645;-81
2023/04/15 07:50:10;;;;;;;4.20;3.80;;;;;;;15.40;50.88;98020.09;5091119;28;41078;-79
2023/04/15 07:52:39;;;;;;;4.80;4.40;;;;;;;15.36;50.01;98026.69;5090279;28;41432;-77
2023/04/15 07:55:09;;;;;;;4.33;3.93;;;;;;;15.30;49.88;98033.47;5092110;28;43859;-86
2023/04/15 07:57:38;;;;;;;5.20;4.03;;;;;;;15.31;50.28;98029.81;5090553;28;42622;-80
2023/04/15 08:00:09;;;;;;;6.40;4.40;;;;;;;15.45;49.98;98023.16;5092101;28;41155;-78
2023/04/15 08:02:44;;;;;;;4.50;4.00;;;;;;;15.71;50.03;98023.34;5090680;28;41901;-79
2023/04/15 08:05:15;;;;;;;4.80;3.90;;;;;;;16.00;49.44;98023.19;5090358;28;43896;-79
2023/04/15 08:07:44;;;;;;;4.73;3.73;;;;;;;16.26;48.77;98029.47;5090772;28;43380;-77
2023/04/15 08:10:13;;;;;;;4.07;3.67;;;;;;;16.51;48.55;98033.22;5091024;28;41191;-78
2023/04/15 08:12:42;;;;;;;4.23;3.87;;;;;;;16.66;47.82;98041.59;5090236;28;41922;-78
2023/04/15 08:15:11;;;;;;;3.77;3.47;;;;;;;16.66;46.83;98050.44;5089842;28;43028;-82
2023/04/15 08:17:41;;;;;;;3.70;3.40;;;;;;;16.56;46.73;98052.34;5090617;28;43403;-79
2023/04/15 08:20:10;;;;;;;3.70;3.40;;;;;;;16.43;46.81;98050.03;5091932;28;40403;-78
2023/04/15 08:22:41;;;;;;;5.07;3.70;;;;;;;16.23;46.88;98055.66;5089462;28;42900;-79
2023/04/15 08:25:10;;;;;;;3.83;3.40;;;;;;;16.19;46.45;98049.78;5089840;28;42979;-82
2023/04/15 08:27:39;;;;;;;3.57;3.27;;;;;;;16.33;46.57;98051.91;5090945;28;42637;-78
2023/04/15 08:30:09;;;;;;;4.00;3.60;;;;;;;16.39;46.29;98047.81;5091499;28;40460;-78
2023/04/15 08:32:38;;;;;;;4.07;3.50;;;;;;;16.59;45.92;98057.34;5094791;28;41890;-79
2023/04/15 08:35:09;;;;;;;4.40;4.00;;;;;;;16.69;45.51;98065.34;5093416;28;43082;-83
2023/04/15 08:37:38;;;;;;;3.40;3.10;;;;;;;16.72;45.38;98068.53;5093400;28;42609;-78
2023/04/15 08:40:10;;;;;;;3.80;3.43;;;;;;;16.73;46.02;98064.88;5095049;28;40300;-79
2023/04/15 08:42:44;;;;;;;3.73;3.23;;;;;;;16.52;45.65;98037.59;5093853;28;42846;-77
2023/04/15 08:45:13;;;;;;;3.70;3.37;;;;;;;16.78;45.83;98070.59;5093782;28;43006;-79
2023/04/15 08:47:45;;;;;;;3.97;3.20;;;;;;;17.01;45.52;98057.59;5093669;28;42570;-79
2023/04/15 08:50:15;;;;;;;3.47;3.17;;;;;;;17.53;44.98;98053.06;5093797;28;41910;-81
2023/04/15 08:52:44;;;;;;;3.63;2.80;;;;;;;18.04;43.86;98082.63;5093243;28;42850;-82
2023/04/15 08:55:16;;;;;;;3.27;2.97;;;;;;;18.09;43.26;98064.22;5094764;28;43003;-77
2023/04/15 08:57:45;;;;;;;3.13;2.83;;;;;;;18.39;42.90;98081.56;5093436;28;42854;-80
2023/04/15 09:00:15;;;;;;;2.70;2.50;;;;;;;18.64;41.98;98094.91;5093690;28;40284;-81
2023/04/15 09:02:44;;;;;;;3.00;2.80;;;;;;;18.75;41.19;98093.75;5094037;28;42817;-78
2023/04/15 09:05:13;;;;;;;2.57;2.37;;;;;;;18.66;40.27;98100.09;5092963;28;43047;-82
2023/04/15 09:07:42;;;;;;;2.80;2.60;;;;;;;18.47;40.62;98106.56;5094321;28;42764;-81
2023/04/15 09:10:12;;;;;;;2.47;2.27;;;;;;;18.10;40.77;98104.25;5094564;28;40307;-82
2023/04/15 09:12:42;;;;;;;2.50;2.30;;;;;;;17.72;41.48;98102.91;5093041;28;42074;-81
2023/04/15 09:15:12;;;;;;;2.30;2.10;;;;;;;17.37;42.36;98090.44;5092947;28;42730;-79
2023/04/15 09:17:43;;;;;;;2.50;2.30;;;;;;;17.22;42.51;98090.16;5092592;28;42344;-83
2023/04/15 09:20:14;;;;;;;1.90;1.80;;;;;;;16.98;42.90;98086.47;5094043;28;41019;-84
2023/04/15 09:22:45;;;;;;;1.87;1.77;;;;;;;16.57;44.92;98078.03;5092656;28;42109;-82
2023/04/15 09:25:28;;;;;;;2.20;2.00;;;;;;;16.23;46.08;98052.97;5092510;28;43090;-77
2023/04/15 09:28:01;;;;;;;2.07;1.87;;;;;;;16.07;47.23;98061.69;5092436;28;42335;-81
2023/04/15 09:30:31;;;;;;;2.20;1.90;;;;;;;15.67;47.57;98064.69;5092424;28;40320;-82
2023/04/15 09:33:01;;;;;;;2.20;2.00;;;;;;;15.34;48.86;98063.34;5092323;28;42467;-78
2023/04/15 09:35:30;;;;;;;2.60;2.10;;;;;;;15.03;50.00;98065.41;5093743;28;43101;-79
2023/04/15 09:38:04;;;;;;;2.20;2.00;;;;;;;14.88;50.97;98054.31;5091888;28;42476;-83
2023/04/15 09:40:35;;;;;;;2.53;2.33;;;;;;;14.74;52.07;98055.59;5092320;28;41792;-78
2023/04/15 09:43:06;;;;;;;2.67;2.30;;;;;;;14.50;52.29;98047.19;5093723;28;41830;-79
2023/04/15 09:45:36;;;;;;;2.07;1.97;;;;;;;14.45;54.60;98048.63;5092579;28;42567;-80
2023/04/15 09:48:21;;;;;;;2.50;2.30;;;;;;;14.42;53.37;98039.06;5093498;28;42664;-81
2023/04/15 09:50:52;;;;;;;2.67;1.70;;;;;;;14.44;54.05;98047.78;5092027;28;41074;-79
2023/04/15 09:53:22;;;;;;;2.00;1.90;;;;;;;14.50;53.81;98052.53;5092510;28;41907;-80
2023/04/15 09:55:53;;;;;;;1.90;1.80;;;;;;;14.57;54.33;98053.66;5092252;28;43877;-79
2023/04/15 09:58:25;;;;;;;1.87;1.70;;;;;;;14.65;53.28;98056.44;5091842;28;43330;-84
2023/04/15 10:00:56;;;;;;;2.37;2.17;;;;;;;14.70;53.43;98058.72;5093519;28;40333;-78
2023/04/15 10:03:26;;;;;;;1.93;1.50;;;;;;;14.84;52.99;98054.75;5093282;28;43491;-80
2023/04/15 10:05:57;;;;;;;2.57;1.80;;;;;;;15.00;52.66;98028.34;5093447;28;43742;-81
2023/04/15 10:08:29;;;;;;;1.83;1.50;;;;;;;15.08;51.51;98055.16;5093302;28;41807;-79
2023/04/15 10:10:58;;;;;;;1.67;1.57;;;;;;;15.11;51.27;98046.84;5092231;28;40473;-79
2023/04/15 10:13:32;;;;;;;2.00;1.40;;;;;;;15.27;51.31;98063.09;5093370;28;42094;-81
2023/04/15 10:16:06;;;;;;;2.07;1.27;;;;;;;15.40;50.74;98052.09;5091885;28;44513;-80
2023/04/15 10:18:38;;;;;;;2.17;1.17;;;;;;;15.40;50.72;98068.97;5091560;28;42769;-80
2023/04/15 10:21:08;;;;;;;1.23;1.07;;;;;;;15.46;50.49;98068.34;5091893;28;40124;-79
2023/04/15 10:23:38;;;;;;;1.30;1.13;;;;;;;15.39;50.44;98074.44;5093012;28;42932;-81
2023/04/15 10:26:08;;;;;;;1.50;1.30;;;;;;;15.32;50.83;98073.34;5091789;28;43500;-79
2023/04/15 10:28:39;;;;;;;2.23;1.30;;;;;;;15.27;50.83;98073.75;5092581;28;42930;-80
2023/04/15 10:31:09;;;;;;;2.30;1.30;;;;;;;15.16;50.12;98076.59;5091719;28;41116;-79
2023/04/15 10:33:38;;;;;;;1.00;0.87;;;;;;;15.10;50.07;98077.16;5092847;28;42657;-78
2023/04/15 10:36:08;;;;;;;1.73;1.10;;;;;;;15.00;50.17;98081.66;5093120;28;43895;-81
2023/04/15 10:38:39;;;;;;;2.03;1.40;;;;;;;14.89;50.52;98079.16;5093107;28;43385;-80
2023/04/15 10:41:16;;;;;;;1.57;1.20;;;;;;;14.66;51.23;98047.47;5093544;28;40118;-81
2023/04/15 10:43:49;;;;;;;1.10;1.00;;;;;;;14.73;50.86;98075.22;5093108;28;41965;-80
2023/04/15 10:46:24;;;;;;;1.20;1.00;;;;;;;14.70;51.17;98070.22;5092073;28;42975;-78
2023/04/15 10:48:54;;;;;;;1.37;1.00;;;;;;;14.60;52.01;98066.69;5092777;28;42545;-79
2023/04/15 10:51:31;;;;;;;1.73;1.23;;;;;;;14.58;52.02;98065.16;5091914;28;40263;-80
2023/04/15 10:54:00;;;;;;;1.00;0.80;;;;;;;14.52;51.84;98082.53;5091113;28;42056;-80
2023/04/15 10:56:30;;;;;;;1.20;0.90;;;;;;;14.46;51.97;98077.78;5091639;28;44062;-80
2023/04/15 10:59:02;;;;;;;1.10;0.90;;;;;;;14.42;52.08;98084.34;5093032;28;43299;-79
2023/04/15 11:01:55;;;;;;;1.27;0.80;;;;;;;14.38;52.92;98085.56;5091504;28;40244;-78
2023/04/15 11:04:52;;;;;;;0.90;0.90;;;;;;;14.28;52.83;98080.22;5091765;28;42815;-81
2023/04/15 11:07:35;;;;;;;1.37;1.20;;;;;;;14.05;53.17;98069.97;5091516;28;43182;-79
2023/04/15 11:10:29;;;;;;;0.97;0.97;;;;;;;13.94;54.63;98082.41;5091420;28;42643;-82
2023/04/15 11:13:00;;;;;;;1.40;1.30;;;;;;;13.77;55.84;98074.22;5091753;28;41209;-82
2023/04/15 11:15:33;;;;;;;2.07;1.37;;;;;;;13.60;56.82;98065.03;5090766;28;42112;-79
2023/04/15 11:18:09;;;;;;;1.73;1.10;;;;;;;13.35;57.58;98058.38;5092222;28;42962;-80
2023/04/15 11:20:40;;;;;;;1.33;1.23;;;;;;;13.30;58.91;98053.44;5091233;28;42554;-82
2023/04/15 11:23:09;;;;;;;1.30;1.20;;;;;;;13.22;59.35;98055.94;5090886;28;41659;-83
2023/04/15 11:25:39;;;;;;;1.87;1.00;;;;;;;13.09;60.74;98052.63;5091168;28;41956;-81
2023/04/15 11:28:07;;;;;;;1.50;1.40;;;;;;;13.01;61.26;98055.06;5090397;28;43309;-80
2023/04/15 11:30:38;;;;;;;1.40;1.30;;;;;;;13.01;61.51;98060.38;5092125;28;42609;-83
2023/04/15 11:33:10;;;;;;;1.40;1.30;;;;;;;13.05;61.89;98056.50;5090932;28;40797;-82
2023/04/15 11:35:42;;;;;;;1.83;1.33;;;;;;;13.03;61.68;98050.47;5091221;28;42802;-81
2023/04/15 11:38:13;;;;;;;1.27;1.20;;;;;;;13.18;61.52;98061.63;5090490;28;42817;-80
2023/04/15 11:40:43;;;;;;;1.57;1.47;;;;;;;13.26;61.14;98070.63;5092070;28;43340;-82
2023/04/15 11:43:14;;;;;;;1.40;1.30;;;;;;;13.19;60.86;98063.31;5090715;28;41371;-80
2023/04/15 11:45:55;;;;;;;1.60;1.50;;;;;;;13.23;60.69;98070.88;5090448;28;42751;-81
2023/04/15 11:48:29;;;;;;;1.63;1.53;;;;;;;13.35;61.19;98081.47;5091981;28;43755;-78
2023/04/15 11:51:00;;;;;;;1.70;1.60;;;;;;;13.57;60.99;98078.63;5092134;28;42635;-80